TFM - Tactical Decision Aid (Experimental) INFO Settings

ID: Runway Winds: METAR Board: Map:

Katl - Atlanta-Hartsfield Jackson Intl

Updated at: 1243 UTC 24 Oct 2014
Latest TAF at: 1124 UTC 24 Oct 2014

TAF Board

Time1152Z24/13Z24/14Z24/15Z24/16Z24/17Z24/18Z24/19Z24/20Z24/21Z24/22Z24/23Z25/00Z25/01Z
TypeOBSPRVLPRVLPRVLPRVLPRVLPRVLPRVLPRVLPRVLPRVLPRVLPRVLPRVL
VIS10>6>6>6>6>6>6>6>6>6>6>6>6>6
CIG180250250250--------------------
CoverBKNBKNBKNBKNSCTSCTSCTSCTSCTSCTSCTSCTSKCSKC
FltCat--VFRVFRVFRVFRVFRVFRVFRVFRVFRVFRVFRVFRVFR
WX----------------------------
WDir50404040VRBVRBVRBVRB300300300300330330
WSpd45553333333355
WGst----------------------------
TAF
KATL 241124Z 2412/2518 04005KT P6SM FEW150 BKN250
  FM241600 VRB03KT P6SM SCT150
  FM242000 30003KT P6SM SCT150
  FM250000 33005KT P6SM SKC


METAR
KATL 241152Z 05004KT 10SM FEW140 BKN180 BKN250 11/07 A3006 RMK AO2 SLP177 VIRGA NW-N & DSNT SW & NW T01110067 10111 20100 51007

TAF/METAR Board Legend

Hazard VFR MVFR IFR LIFR
Visibility (sm) >5 3≤X≤5 1≤X<3 <1
Ceiling (100 ft) >30 10≤X≤30 5≤X<10 <5
Wind Speed (kt) <10 10≤X<20 20≤X<30 ≥30
Wind Gust (kt) <15 15≤X<25 25≤X<35 ≥35
Weather No Wx Reported VCTS,-TS,-FZRA TS,FZRA +TS,+FZRA




Page loaded:  12:43 UTC  |   05:43 AM Pacific  |   06:43 AM Mountain  |   07:43 AM Central  |   08:43 AM Eastern

 

ADVISORIES

FORECASTS

FORECASTS

OBSERVATIONS

USER TOOLS

ABOUT US